sensor_id;sensor_type;location;lat;lon;timestamp;P1;durP1;ratioP1;P2;durP2;ratioP2
24153;SDS011;12312;53.362;-1.518;2024-02-04T00:02:37;9.05;;;2.88;;
24153;SDS011;12312;53.362;-1.518;2024-02-04T00:05:22;5.00;;;2.17;;
24153;SDS011;12312;53.362;-1.518;2024-02-04T00:08:06;10.55;;;2.80;;
24153;SDS011;12312;53.362;-1.518;2024-02-04T00:10:50;5.47;;;2.65;;
24153;SDS011;12312;53.362;-1.518;2024-02-04T00:13:34;5.82;;;2.00;;
24153;SDS011;12312;53.362;-1.518;2024-02-04T00:16:18;10.25;;;2.30;;
24153;SDS011;12312;53.362;-1.518;2024-02-04T00:19:02;9.32;;;3.15;;
24153;SDS011;12312;53.362;-1.518;2024-02-04T00:21:46;6.45;;;2.55;;
24153;SDS011;12312;53.362;-1.518;2024-02-04T00:24:30;5.47;;;2.30;;
24153;SDS011;12312;53.362;-1.518;2024-02-04T00:27:14;6.32;;;3.05;;
24153;SDS011;12312;53.362;-1.518;2024-02-04T00:29:58;5.57;;;2.03;;
24153;SDS011;12312;53.362;-1.518;2024-02-04T00:32:42;6.88;;;2.50;;
24153;SDS011;12312;53.362;-1.518;2024-02-04T00:35:26;6.38;;;1.85;;
24153;SDS011;12312;53.362;-1.518;2024-02-04T00:38:10;3.47;;;1.88;;
24153;SDS011;12312;53.362;-1.518;2024-02-04T00:40:54;3.17;;;1.58;;
24153;SDS011;12312;53.362;-1.518;2024-02-04T00:43:40;8.60;;;1.55;;
24153;SDS011;12312;53.362;-1.518;2024-02-04T00:46:24;6.70;;;1.73;;
24153;SDS011;12312;53.362;-1.518;2024-02-04T00:49:08;7.13;;;1.83;;
24153;SDS011;12312;53.362;-1.518;2024-02-04T00:51:52;14.00;;;1.80;;
24153;SDS011;12312;53.362;-1.518;2024-02-04T00:54:36;2.10;;;1.25;;
24153;SDS011;12312;53.362;-1.518;2024-02-04T00:57:20;11.38;;;1.77;;
24153;SDS011;12312;53.362;-1.518;2024-02-04T01:00:04;7.20;;;1.90;;
24153;SDS011;12312;53.362;-1.518;2024-02-04T01:02:49;6.23;;;1.40;;
24153;SDS011;12312;53.362;-1.518;2024-02-04T01:05:33;3.78;;;1.15;;
24153;SDS011;12312;53.362;-1.518;2024-02-04T01:08:18;8.43;;;1.15;;
24153;SDS011;12312;53.362;-1.518;2024-02-04T01:11:02;1.42;;;0.75;;
24153;SDS011;12312;53.362;-1.518;2024-02-04T01:16:32;4.25;;;1.27;;
24153;SDS011;12312;53.362;-1.518;2024-02-04T01:19:16;3.58;;;0.82;;
24153;SDS011;12312;53.362;-1.518;2024-02-04T01:22:00;2.60;;;1.05;;
24153;SDS011;12312;53.362;-1.518;2024-02-04T01:24:44;5.47;;;1.02;;
24153;SDS011;12312;53.362;-1.518;2024-02-04T01:27:28;3.30;;;1.05;;
24153;SDS011;12312;53.362;-1.518;2024-02-04T01:30:12;3.22;;;1.52;;
24153;SDS011;12312;53.362;-1.518;2024-02-04T01:32:57;5.32;;;1.15;;
24153;SDS011;12312;53.362;-1.518;2024-02-04T01:35:40;2.05;;;0.98;;
24153;SDS011;12312;53.362;-1.518;2024-02-04T01:38:24;1.35;;;0.90;;
24153;SDS011;12312;53.362;-1.518;2024-02-04T01:41:08;9.73;;;1.98;;
24153;SDS011;12312;53.362;-1.518;2024-02-04T01:43:53;7.97;;;2.00;;
24153;SDS011;12312;53.362;-1.518;2024-02-04T01:46:39;4.18;;;1.10;;
24153;SDS011;12312;53.362;-1.518;2024-02-04T01:49:24;1.25;;;0.80;;
24153;SDS011;12312;53.362;-1.518;2024-02-04T01:52:09;4.15;;;0.90;;
24153;SDS011;12312;53.362;-1.518;2024-02-04T01:54:55;3.70;;;0.88;;
24153;SDS011;12312;53.362;-1.518;2024-02-04T01:57:39;6.53;;;1.25;;
24153;SDS011;12312;53.362;-1.518;2024-02-04T02:00:24;2.67;;;1.08;;
24153;SDS011;12312;53.362;-1.518;2024-02-04T02:03:08;1.10;;;0.60;;
24153;SDS011;12312;53.362;-1.518;2024-02-04T02:05:55;1.77;;;0.93;;
24153;SDS011;12312;53.362;-1.518;2024-02-04T02:08:40;1.48;;;0.75;;
24153;SDS011;12312;53.362;-1.518;2024-02-04T02:11:27;2.50;;;1.02;;
24153;SDS011;12312;53.362;-1.518;2024-02-04T02:14:41;4.68;;;0.90;;
24153;SDS011;12312;53.362;-1.518;2024-02-04T02:17:38;6.10;;;1.02;;
24153;SDS011;12312;53.362;-1.518;2024-02-04T02:21:23;2.70;;;0.90;;
24153;SDS011;12312;53.362;-1.518;2024-02-04T02:26:59;8.80;;;1.08;;
24153;SDS011;12312;53.362;-1.518;2024-02-04T02:29:43;0.75;;;0.68;;
24153;SDS011;12312;53.362;-1.518;2024-02-04T02:32:27;4.18;;;1.10;;
24153;SDS011;12312;53.362;-1.518;2024-02-04T02:35:12;4.07;;;1.00;;
24153;SDS011;12312;53.362;-1.518;2024-02-04T02:40:54;3.80;;;1.20;;
24153;SDS011;12312;53.362;-1.518;2024-02-04T02:43:42;1.27;;;1.17;;
24153;SDS011;12312;53.362;-1.518;2024-02-04T02:46:28;1.50;;;1.20;;
24153;SDS011;12312;53.362;-1.518;2024-02-04T02:49:13;1.20;;;1.00;;
24153;SDS011;12312;53.362;-1.518;2024-02-04T02:51:57;6.32;;;0.98;;
24153;SDS011;12312;53.362;-1.518;2024-02-04T02:54:41;4.57;;;1.10;;
24153;SDS011;12312;53.362;-1.518;2024-02-04T02:57:25;6.10;;;1.20;;
24153;SDS011;12312;53.362;-1.518;2024-02-04T03:00:09;4.82;;;0.90;;
24153;SDS011;12312;53.362;-1.518;2024-02-04T03:02:53;2.40;;;0.75;;
24153;SDS011;12312;53.362;-1.518;2024-02-04T03:05:38;6.65;;;1.02;;
24153;SDS011;12312;53.362;-1.518;2024-02-04T03:08:22;3.55;;;1.13;;
24153;SDS011;12312;53.362;-1.518;2024-02-04T03:11:06;0.98;;;0.90;;
24153;SDS011;12312;53.362;-1.518;2024-02-04T03:13:50;1.48;;;0.80;;
24153;SDS011;12312;53.362;-1.518;2024-02-04T03:16:34;2.55;;;1.23;;
24153;SDS011;12312;53.362;-1.518;2024-02-04T03:19:18;5.20;;;1.45;;
24153;SDS011;12312;53.362;-1.518;2024-02-04T03:22:02;1.92;;;1.50;;
24153;SDS011;12312;53.362;-1.518;2024-02-04T03:24:46;7.43;;;1.55;;
24153;SDS011;12312;53.362;-1.518;2024-02-04T03:27:30;1.40;;;1.30;;
24153;SDS011;12312;53.362;-1.518;2024-02-04T03:30:14;4.70;;;1.63;;
24153;SDS011;12312;53.362;-1.518;2024-02-04T03:32:58;3.22;;;1.88;;
24153;SDS011;12312;53.362;-1.518;2024-02-04T03:35:42;6.15;;;2.45;;
24153;SDS011;12312;53.362;-1.518;2024-02-04T03:38:26;5.45;;;1.98;;
24153;SDS011;12312;53.362;-1.518;2024-02-04T03:41:10;5.13;;;2.13;;
24153;SDS011;12312;53.362;-1.518;2024-02-04T03:43:54;4.25;;;2.33;;
24153;SDS011;12312;53.362;-1.518;2024-02-04T03:46:39;3.90;;;2.65;;
24153;SDS011;12312;53.362;-1.518;2024-02-04T03:49:26;3.25;;;2.03;;
24153;SDS011;12312;53.362;-1.518;2024-02-04T03:52:09;3.03;;;2.05;;
24153;SDS011;12312;53.362;-1.518;2024-02-04T03:54:54;2.42;;;1.90;;
24153;SDS011;12312;53.362;-1.518;2024-02-04T03:57:37;2.92;;;2.28;;
24153;SDS011;12312;53.362;-1.518;2024-02-04T04:00:21;5.30;;;2.83;;
24153;SDS011;12312;53.362;-1.518;2024-02-04T04:03:05;2.90;;;2.30;;
24153;SDS011;12312;53.362;-1.518;2024-02-04T04:05:49;5.90;;;2.40;;
24153;SDS011;12312;53.362;-1.518;2024-02-04T04:08:34;4.22;;;2.47;;
24153;SDS011;12312;53.362;-1.518;2024-02-04T04:11:18;5.13;;;2.55;;
24153;SDS011;12312;53.362;-1.518;2024-02-04T04:14:02;3.83;;;2.85;;
24153;SDS011;12312;53.362;-1.518;2024-02-04T04:16:46;4.53;;;2.15;;
24153;SDS011;12312;53.362;-1.518;2024-02-04T04:19:30;3.90;;;2.20;;
24153;SDS011;12312;53.362;-1.518;2024-02-04T04:25:00;5.53;;;1.90;;
24153;SDS011;12312;53.362;-1.518;2024-02-04T04:27:44;1.88;;;1.60;;
24153;SDS011;12312;53.362;-1.518;2024-02-04T04:30:28;2.75;;;1.60;;
24153;SDS011;12312;53.362;-1.518;2024-02-04T04:33:12;2.15;;;1.23;;
24153;SDS011;12312;53.362;-1.518;2024-02-04T04:35:56;1.63;;;1.05;;
24153;SDS011;12312;53.362;-1.518;2024-02-04T04:38:40;1.95;;;1.58;;
24153;SDS011;12312;53.362;-1.518;2024-02-04T04:41:25;2.20;;;1.38;;
24153;SDS011;12312;53.362;-1.518;2024-02-04T04:44:09;2.50;;;1.10;;
24153;SDS011;12312;53.362;-1.518;2024-02-04T04:46:53;1.05;;;0.82;;
24153;SDS011;12312;53.362;-1.518;2024-02-04T04:49:37;3.45;;;1.35;;
24153;SDS011;12312;53.362;-1.518;2024-02-04T04:52:21;3.78;;;1.23;;
24153;SDS011;12312;53.362;-1.518;2024-02-04T04:55:05;4.88;;;1.10;;
24153;SDS011;12312;53.362;-1.518;2024-02-04T04:57:49;3.95;;;0.98;;
24153;SDS011;12312;53.362;-1.518;2024-02-04T05:00:34;2.70;;;1.05;;
24153;SDS011;12312;53.362;-1.518;2024-02-04T05:03:17;1.05;;;0.80;;
24153;SDS011;12312;53.362;-1.518;2024-02-04T05:06:01;1.25;;;1.00;;
24153;SDS011;12312;53.362;-1.518;2024-02-04T05:08:45;5.32;;;1.10;;
24153;SDS011;12312;53.362;-1.518;2024-02-04T05:11:29;1.60;;;0.85;;
24153;SDS011;12312;53.362;-1.518;2024-02-04T05:14:13;1.55;;;0.80;;
24153;SDS011;12312;53.362;-1.518;2024-02-04T05:16:57;0.80;;;0.80;;
24153;SDS011;12312;53.362;-1.518;2024-02-04T05:19:41;3.78;;;1.00;;
24153;SDS011;12312;53.362;-1.518;2024-02-04T05:22:26;1.98;;;1.17;;
24153;SDS011;12312;53.362;-1.518;2024-02-04T05:25:10;1.42;;;0.77;;
24153;SDS011;12312;53.362;-1.518;2024-02-04T05:27:54;2.65;;;0.82;;
24153;SDS011;12312;53.362;-1.518;2024-02-04T05:30:38;2.75;;;0.70;;
24153;SDS011;12312;53.362;-1.518;2024-02-04T05:33:22;1.85;;;0.63;;
24153;SDS011;12312;53.362;-1.518;2024-02-04T05:36:06;1.63;;;0.88;;
24153;SDS011;12312;53.362;-1.518;2024-02-04T05:38:50;2.40;;;0.60;;
24153;SDS011;12312;53.362;-1.518;2024-02-04T05:41:34;0.52;;;0.52;;
24153;SDS011;12312;53.362;-1.518;2024-02-04T05:44:18;1.55;;;0.50;;
24153;SDS011;12312;53.362;-1.518;2024-02-04T05:47:02;2.47;;;0.70;;
24153;SDS011;12312;53.362;-1.518;2024-02-04T05:49:46;3.97;;;0.60;;
24153;SDS011;12312;53.362;-1.518;2024-02-04T05:52:30;1.55;;;0.45;;
24153;SDS011;12312;53.362;-1.518;2024-02-04T05:55:15;1.67;;;0.60;;
24153;SDS011;12312;53.362;-1.518;2024-02-04T05:57:59;1.05;;;0.90;;
24153;SDS011;12312;53.362;-1.518;2024-02-04T06:00:42;3.97;;;1.50;;
24153;SDS011;12312;53.362;-1.518;2024-02-04T06:03:26;2.60;;;1.40;;
24153;SDS011;12312;53.362;-1.518;2024-02-04T06:06:14;2.03;;;1.27;;
24153;SDS011;12312;53.362;-1.518;2024-02-04T06:09:03;3.63;;;1.20;;
24153;SDS011;12312;53.362;-1.518;2024-02-04T06:11:47;1.00;;;0.80;;
24153;SDS011;12312;53.362;-1.518;2024-02-04T06:14:32;4.30;;;0.98;;
24153;SDS011;12312;53.362;-1.518;2024-02-04T06:17:18;2.65;;;1.33;;
24153;SDS011;12312;53.362;-1.518;2024-02-04T06:20:02;2.72;;;1.40;;
24153;SDS011;12312;53.362;-1.518;2024-02-04T06:22:47;2.75;;;1.75;;
24153;SDS011;12312;53.362;-1.518;2024-02-04T06:25:31;2.08;;;1.50;;
24153;SDS011;12312;53.362;-1.518;2024-02-04T06:28:15;1.90;;;1.48;;
24153;SDS011;12312;53.362;-1.518;2024-02-04T06:30:59;4.30;;;1.85;;
24153;SDS011;12312;53.362;-1.518;2024-02-04T06:33:43;3.00;;;1.63;;
24153;SDS011;12312;53.362;-1.518;2024-02-04T06:36:27;3.65;;;1.58;;
24153;SDS011;12312;53.362;-1.518;2024-02-04T06:39:12;3.50;;;1.40;;
24153;SDS011;12312;53.362;-1.518;2024-02-04T06:41:57;5.20;;;1.33;;
24153;SDS011;12312;53.362;-1.518;2024-02-04T06:44:44;5.72;;;1.60;;
24153;SDS011;12312;53.362;-1.518;2024-02-04T06:47:29;1.67;;;1.17;;
24153;SDS011;12312;53.362;-1.518;2024-02-04T06:50:13;1.25;;;1.00;;
24153;SDS011;12312;53.362;-1.518;2024-02-04T06:52:57;0.82;;;0.82;;
24153;SDS011;12312;53.362;-1.518;2024-02-04T06:55:41;2.50;;;0.95;;
24153;SDS011;12312;53.362;-1.518;2024-02-04T06:58:25;1.05;;;0.80;;
24153;SDS011;12312;53.362;-1.518;2024-02-04T07:01:10;1.00;;;0.90;;
24153;SDS011;12312;53.362;-1.518;2024-02-04T07:03:54;2.63;;;1.00;;
24153;SDS011;12312;53.362;-1.518;2024-02-04T07:06:38;1.73;;;1.20;;
24153;SDS011;12312;53.362;-1.518;2024-02-04T07:09:22;1.20;;;1.10;;
24153;SDS011;12312;53.362;-1.518;2024-02-04T07:12:06;2.25;;;1.13;;
24153;SDS011;12312;53.362;-1.518;2024-02-04T07:14:50;2.20;;;1.20;;
24153;SDS011;12312;53.362;-1.518;2024-02-04T07:17:34;1.77;;;0.95;;
24153;SDS011;12312;53.362;-1.518;2024-02-04T07:20:19;1.15;;;0.90;;
24153;SDS011;12312;53.362;-1.518;2024-02-04T07:23:04;2.72;;;0.98;;
24153;SDS011;12312;53.362;-1.518;2024-02-04T07:25:48;1.52;;;1.00;;
24153;SDS011;12312;53.362;-1.518;2024-02-04T07:28:32;2.95;;;0.95;;
24153;SDS011;12312;53.362;-1.518;2024-02-04T07:31:17;1.10;;;0.77;;
24153;SDS011;12312;53.362;-1.518;2024-02-04T07:34:01;1.45;;;1.33;;
24153;SDS011;12312;53.362;-1.518;2024-02-04T07:36:45;1.35;;;1.00;;
24153;SDS011;12312;53.362;-1.518;2024-02-04T07:39:29;0.75;;;0.70;;
24153;SDS011;12312;53.362;-1.518;2024-02-04T07:42:14;0.95;;;0.85;;
24153;SDS011;12312;53.362;-1.518;2024-02-04T07:44:58;1.02;;;0.60;;
24153;SDS011;12312;53.362;-1.518;2024-02-04T07:47:42;0.68;;;0.63;;
24153;SDS011;12312;53.362;-1.518;2024-02-04T07:50:26;0.80;;;0.80;;
24153;SDS011;12312;53.362;-1.518;2024-02-04T07:53:10;1.05;;;0.65;;
24153;SDS011;12312;53.362;-1.518;2024-02-04T07:55:54;0.75;;;0.75;;
24153;SDS011;12312;53.362;-1.518;2024-02-04T07:58:38;0.85;;;0.80;;
24153;SDS011;12312;53.362;-1.518;2024-02-04T08:01:22;2.38;;;0.90;;
24153;SDS011;12312;53.362;-1.518;2024-02-04T08:04:07;1.05;;;0.95;;
24153;SDS011;12312;53.362;-1.518;2024-02-04T08:06:54;1.05;;;0.95;;
24153;SDS011;12312;53.362;-1.518;2024-02-04T08:09:38;1.23;;;0.80;;
24153;SDS011;12312;53.362;-1.518;2024-02-04T08:12:22;1.55;;;1.20;;
24153;SDS011;12312;53.362;-1.518;2024-02-04T08:15:06;1.55;;;1.30;;
24153;SDS011;12312;53.362;-1.518;2024-02-04T08:17:51;1.77;;;1.10;;
24153;SDS011;12312;53.362;-1.518;2024-02-04T08:20:35;0.70;;;0.70;;
24153;SDS011;12312;53.362;-1.518;2024-02-04T08:23:19;2.40;;;1.30;;
24153;SDS011;12312;53.362;-1.518;2024-02-04T08:26:03;1.13;;;0.98;;
24153;SDS011;12312;53.362;-1.518;2024-02-04T08:28:47;0.70;;;0.70;;
24153;SDS011;12312;53.362;-1.518;2024-02-04T08:31:31;0.90;;;0.70;;
24153;SDS011;12312;53.362;-1.518;2024-02-04T08:37:04;0.70;;;0.70;;
24153;SDS011;12312;53.362;-1.518;2024-02-04T08:39:48;0.80;;;0.80;;
24153;SDS011;12312;53.362;-1.518;2024-02-04T08:42:32;0.80;;;0.80;;
24153;SDS011;12312;53.362;-1.518;2024-02-04T08:45:15;0.95;;;0.70;;
24153;SDS011;12312;53.362;-1.518;2024-02-04T08:47:59;0.80;;;0.80;;
24153;SDS011;12312;53.362;-1.518;2024-02-04T08:50:43;2.15;;;0.90;;
24153;SDS011;12312;53.362;-1.518;2024-02-04T08:53:27;1.33;;;1.10;;
24153;SDS011;12312;53.362;-1.518;2024-02-04T08:56:11;3.00;;;1.13;;
24153;SDS011;12312;53.362;-1.518;2024-02-04T08:58:55;1.20;;;1.10;;
24153;SDS011;12312;53.362;-1.518;2024-02-04T09:01:39;1.25;;;1.15;;
24153;SDS011;12312;53.362;-1.518;2024-02-04T09:04:23;1.38;;;0.85;;
24153;SDS011;12312;53.362;-1.518;2024-02-04T09:07:07;0.85;;;0.73;;
24153;SDS011;12312;53.362;-1.518;2024-02-04T09:09:51;1.23;;;0.90;;
24153;SDS011;12312;53.362;-1.518;2024-02-04T09:12:35;1.27;;;0.90;;
24153;SDS011;12312;53.362;-1.518;2024-02-04T09:15:19;0.80;;;0.77;;
24153;SDS011;12312;53.362;-1.518;2024-02-04T09:18:03;0.95;;;0.88;;
24153;SDS011;12312;53.362;-1.518;2024-02-04T09:20:47;1.00;;;0.90;;
24153;SDS011;12312;53.362;-1.518;2024-02-04T09:23:31;0.88;;;0.88;;
24153;SDS011;12312;53.362;-1.518;2024-02-04T09:26:18;0.90;;;0.90;;
24153;SDS011;12312;53.362;-1.518;2024-02-04T09:29:02;1.42;;;1.00;;
24153;SDS011;12312;53.362;-1.518;2024-02-04T09:31:45;1.15;;;0.80;;
24153;SDS011;12312;53.362;-1.518;2024-02-04T09:34:29;0.70;;;0.70;;
24153;SDS011;12312;53.362;-1.518;2024-02-04T09:37:14;0.80;;;0.73;;
24153;SDS011;12312;53.362;-1.518;2024-02-04T09:39:58;0.80;;;0.70;;
24153;SDS011;12312;53.362;-1.518;2024-02-04T09:42:42;0.70;;;0.70;;
24153;SDS011;12312;53.362;-1.518;2024-02-04T09:45:26;0.98;;;0.77;;
24153;SDS011;12312;53.362;-1.518;2024-02-04T09:48:10;1.58;;;1.00;;
24153;SDS011;12312;53.362;-1.518;2024-02-04T09:50:55;1.97;;;1.00;;
24153;SDS011;12312;53.362;-1.518;2024-02-04T09:53:43;3.65;;;1.00;;
24153;SDS011;12312;53.362;-1.518;2024-02-04T09:56:27;1.52;;;1.10;;
24153;SDS011;12312;53.362;-1.518;2024-02-04T09:59:13;2.40;;;1.25;;
24153;SDS011;12312;53.362;-1.518;2024-02-04T10:01:57;1.90;;;0.95;;
24153;SDS011;12312;53.362;-1.518;2024-02-04T10:04:41;3.28;;;1.17;;
24153;SDS011;12312;53.362;-1.518;2024-02-04T10:07:25;2.58;;;1.13;;
24153;SDS011;12312;53.362;-1.518;2024-02-04T10:10:09;3.90;;;1.15;;
24153;SDS011;12312;53.362;-1.518;2024-02-04T10:12:54;1.92;;;1.23;;
24153;SDS011;12312;53.362;-1.518;2024-02-04T10:15:38;1.25;;;0.85;;
24153;SDS011;12312;53.362;-1.518;2024-02-04T10:18:22;3.20;;;1.15;;
24153;SDS011;12312;53.362;-1.518;2024-02-04T10:21:14;3.88;;;1.02;;
24153;SDS011;12312;53.362;-1.518;2024-02-04T10:24:02;1.83;;;1.10;;
24153;SDS011;12312;53.362;-1.518;2024-02-04T10:26:46;2.92;;;1.27;;
24153;SDS011;12312;53.362;-1.518;2024-02-04T10:29:31;1.60;;;1.13;;
24153;SDS011;12312;53.362;-1.518;2024-02-04T10:32:15;1.98;;;1.20;;
24153;SDS011;12312;53.362;-1.518;2024-02-04T10:35:05;1.67;;;0.98;;
24153;SDS011;12312;53.362;-1.518;2024-02-04T10:37:51;1.83;;;1.20;;
24153;SDS011;12312;53.362;-1.518;2024-02-04T10:40:35;1.67;;;1.13;;
24153;SDS011;12312;53.362;-1.518;2024-02-04T10:43:20;2.50;;;1.75;;
24153;SDS011;12312;53.362;-1.518;2024-02-04T10:46:08;3.20;;;1.63;;
24153;SDS011;12312;53.362;-1.518;2024-02-04T10:48:55;1.40;;;1.30;;
24153;SDS011;12312;53.362;-1.518;2024-02-04T10:51:43;1.65;;;1.13;;
24153;SDS011;12312;53.362;-1.518;2024-02-04T10:54:28;3.30;;;1.10;;
24153;SDS011;12312;53.362;-1.518;2024-02-04T10:57:13;2.15;;;1.33;;
24153;SDS011;12312;53.362;-1.518;2024-02-04T11:00:05;2.45;;;1.38;;
24153;SDS011;12312;53.362;-1.518;2024-02-04T11:02:53;5.00;;;1.63;;
24153;SDS011;12312;53.362;-1.518;2024-02-04T11:05:38;1.67;;;1.20;;
24153;SDS011;12312;53.362;-1.518;2024-02-04T11:08:26;2.92;;;1.48;;
24153;SDS011;12312;53.362;-1.518;2024-02-04T11:11:11;4.53;;;2.08;;
24153;SDS011;12312;53.362;-1.518;2024-02-04T11:13:56;2.00;;;1.10;;
24153;SDS011;12312;53.362;-1.518;2024-02-04T11:25:57;3.72;;;1.50;;
24153;SDS011;12312;53.362;-1.518;2024-02-04T11:28:43;3.83;;;1.90;;
24153;SDS011;12312;53.362;-1.518;2024-02-04T11:31:28;2.72;;;1.63;;
24153;SDS011;12312;53.362;-1.518;2024-02-04T11:34:13;2.92;;;1.45;;
24153;SDS011;12312;53.362;-1.518;2024-02-04T11:36:57;3.30;;;1.15;;
24153;SDS011;12312;53.362;-1.518;2024-02-04T11:39:52;2.85;;;1.50;;
24153;SDS011;12312;53.362;-1.518;2024-02-04T11:42:37;4.18;;;1.30;;
24153;SDS011;12312;53.362;-1.518;2024-02-04T11:45:21;5.35;;;1.38;;
24153;SDS011;12312;53.362;-1.518;2024-02-04T11:48:09;2.85;;;1.30;;
24153;SDS011;12312;53.362;-1.518;2024-02-04T11:50:55;4.53;;;1.63;;
24153;SDS011;12312;53.362;-1.518;2024-02-04T11:53:40;2.85;;;1.40;;
24153;SDS011;12312;53.362;-1.518;2024-02-04T11:56:24;3.95;;;2.00;;
24153;SDS011;12312;53.362;-1.518;2024-02-04T11:59:08;2.42;;;1.55;;
24153;SDS011;12312;53.362;-1.518;2024-02-04T12:01:54;4.45;;;1.67;;
24153;SDS011;12312;53.362;-1.518;2024-02-04T12:04:39;1.95;;;1.58;;
24153;SDS011;12312;53.362;-1.518;2024-02-04T12:07:23;3.17;;;1.27;;
24153;SDS011;12312;53.362;-1.518;2024-02-04T12:10:08;5.18;;;1.70;;
24153;SDS011;12312;53.362;-1.518;2024-02-04T12:12:53;2.45;;;1.23;;
24153;SDS011;12312;53.362;-1.518;2024-02-04T12:15:37;1.75;;;1.02;;
24153;SDS011;12312;53.362;-1.518;2024-02-04T12:18:23;2.67;;;1.10;;
24153;SDS011;12312;53.362;-1.518;2024-02-04T12:21:07;2.75;;;1.00;;
24153;SDS011;12312;53.362;-1.518;2024-02-04T12:23:51;1.85;;;0.82;;
24153;SDS011;12312;53.362;-1.518;2024-02-04T12:26:36;6.03;;;1.23;;
24153;SDS011;12312;53.362;-1.518;2024-02-04T12:29:20;1.35;;;0.95;;
24153;SDS011;12312;53.362;-1.518;2024-02-04T12:32:04;3.75;;;0.90;;
24153;SDS011;12312;53.362;-1.518;2024-02-04T12:34:49;3.10;;;0.90;;
24153;SDS011;12312;53.362;-1.518;2024-02-04T12:37:37;0.95;;;0.68;;
24153;SDS011;12312;53.362;-1.518;2024-02-04T12:40:22;2.83;;;0.90;;
24153;SDS011;12312;53.362;-1.518;2024-02-04T12:43:06;4.90;;;0.90;;
24153;SDS011;12312;53.362;-1.518;2024-02-04T12:45:50;2.67;;;0.80;;
24153;SDS011;12312;53.362;-1.518;2024-02-04T12:48:40;1.15;;;0.82;;
24153;SDS011;12312;53.362;-1.518;2024-02-04T12:51:25;2.10;;;0.93;;
24153;SDS011;12312;53.362;-1.518;2024-02-04T12:54:13;4.85;;;0.80;;
24153;SDS011;12312;53.362;-1.518;2024-02-04T12:56:58;1.20;;;0.85;;
24153;SDS011;12312;53.362;-1.518;2024-02-04T12:59:42;3.92;;;1.70;;
24153;SDS011;12312;53.362;-1.518;2024-02-04T13:02:26;0.80;;;0.80;;
24153;SDS011;12312;53.362;-1.518;2024-02-04T13:05:10;2.08;;;1.48;;
24153;SDS011;12312;53.362;-1.518;2024-02-04T13:08:06;2.22;;;1.70;;
24153;SDS011;12312;53.362;-1.518;2024-02-04T13:10:54;6.15;;;2.90;;
24153;SDS011;12312;53.362;-1.518;2024-02-04T13:13:40;5.78;;;2.00;;
24153;SDS011;12312;53.362;-1.518;2024-02-04T13:16:23;3.58;;;2.22;;
24153;SDS011;12312;53.362;-1.518;2024-02-04T13:19:09;3.25;;;2.20;;
24153;SDS011;12312;53.362;-1.518;2024-02-04T13:21:52;2.38;;;1.63;;
24153;SDS011;12312;53.362;-1.518;2024-02-04T13:24:36;2.05;;;1.50;;
24153;SDS011;12312;53.362;-1.518;2024-02-04T13:27:22;2.47;;;1.52;;
24153;SDS011;12312;53.362;-1.518;2024-02-04T13:30:07;1.20;;;1.10;;
24153;SDS011;12312;53.362;-1.518;2024-02-04T13:32:55;1.73;;;1.30;;
24153;SDS011;12312;53.362;-1.518;2024-02-04T13:35:41;3.35;;;1.15;;
24153;SDS011;12312;53.362;-1.518;2024-02-04T13:38:25;3.25;;;1.20;;
24153;SDS011;12312;53.362;-1.518;2024-02-04T13:41:09;3.42;;;1.23;;
24153;SDS011;12312;53.362;-1.518;2024-02-04T13:43:53;3.75;;;1.60;;
24153;SDS011;12312;53.362;-1.518;2024-02-04T13:46:37;2.33;;;1.90;;
24153;SDS011;12312;53.362;-1.518;2024-02-04T13:49:25;2.45;;;1.50;;
24153;SDS011;12312;53.362;-1.518;2024-02-04T13:52:09;3.30;;;1.30;;
24153;SDS011;12312;53.362;-1.518;2024-02-04T13:54:53;4.25;;;1.58;;
24153;SDS011;12312;53.362;-1.518;2024-02-04T13:57:37;2.75;;;1.20;;
24153;SDS011;12312;53.362;-1.518;2024-02-04T14:00:21;5.80;;;1.48;;
24153;SDS011;12312;53.362;-1.518;2024-02-04T14:03:05;2.40;;;1.40;;
24153;SDS011;12312;53.362;-1.518;2024-02-04T14:05:50;4.07;;;1.02;;
24153;SDS011;12312;53.362;-1.518;2024-02-04T14:08:35;2.00;;;0.90;;
24153;SDS011;12312;53.362;-1.518;2024-02-04T14:11:19;2.65;;;1.65;;
24153;SDS011;12312;53.362;-1.518;2024-02-04T14:14:03;2.42;;;1.35;;
24153;SDS011;12312;53.362;-1.518;2024-02-04T14:16:48;3.70;;;1.50;;
24153;SDS011;12312;53.362;-1.518;2024-02-04T14:19:32;2.72;;;1.45;;
24153;SDS011;12312;53.362;-1.518;2024-02-04T14:22:16;4.32;;;1.30;;
24153;SDS011;12312;53.362;-1.518;2024-02-04T14:25:01;2.20;;;1.48;;
24153;SDS011;12312;53.362;-1.518;2024-02-04T14:27:45;4.13;;;1.60;;
24153;SDS011;12312;53.362;-1.518;2024-02-04T14:30:29;3.92;;;1.88;;
24153;SDS011;12312;53.362;-1.518;2024-02-04T14:33:13;6.22;;;1.90;;
24153;SDS011;12312;53.362;-1.518;2024-02-04T14:35:57;4.22;;;1.88;;
24153;SDS011;12312;53.362;-1.518;2024-02-04T14:38:41;4.00;;;1.55;;
24153;SDS011;12312;53.362;-1.518;2024-02-04T14:41:26;2.85;;;1.38;;
24153;SDS011;12312;53.362;-1.518;2024-02-04T14:44:10;1.95;;;1.52;;
24153;SDS011;12312;53.362;-1.518;2024-02-04T14:46:54;3.00;;;1.55;;
24153;SDS011;12312;53.362;-1.518;2024-02-04T14:49:38;3.33;;;1.20;;
24153;SDS011;12312;53.362;-1.518;2024-02-04T14:52:23;2.65;;;1.50;;
24153;SDS011;12312;53.362;-1.518;2024-02-04T14:55:07;6.38;;;1.13;;
24153;SDS011;12312;53.362;-1.518;2024-02-04T14:57:53;3.65;;;1.77;;
24153;SDS011;12312;53.362;-1.518;2024-02-04T15:00:37;2.60;;;1.45;;
24153;SDS011;12312;53.362;-1.518;2024-02-04T15:03:21;3.35;;;1.02;;
24153;SDS011;12312;53.362;-1.518;2024-02-04T15:06:06;3.65;;;1.30;;
24153;SDS011;12312;53.362;-1.518;2024-02-04T15:08:50;4.05;;;1.20;;
24153;SDS011;12312;53.362;-1.518;2024-02-04T15:11:34;4.45;;;0.98;;
24153;SDS011;12312;53.362;-1.518;2024-02-04T15:14:19;1.67;;;1.15;;
24153;SDS011;12312;53.362;-1.518;2024-02-04T15:17:03;2.25;;;1.58;;
24153;SDS011;12312;53.362;-1.518;2024-02-04T15:19:48;5.60;;;1.77;;
24153;SDS011;12312;53.362;-1.518;2024-02-04T15:22:33;2.88;;;1.23;;
24153;SDS011;12312;53.362;-1.518;2024-02-04T15:25:17;4.35;;;1.90;;
24153;SDS011;12312;53.362;-1.518;2024-02-04T15:28:02;2.42;;;1.23;;
24153;SDS011;12312;53.362;-1.518;2024-02-04T15:30:48;4.57;;;1.55;;
24153;SDS011;12312;53.362;-1.518;2024-02-04T15:33:33;2.88;;;1.60;;
24153;SDS011;12312;53.362;-1.518;2024-02-04T15:36:17;4.70;;;1.42;;
24153;SDS011;12312;53.362;-1.518;2024-02-04T15:39:01;1.63;;;1.27;;
24153;SDS011;12312;53.362;-1.518;2024-02-04T15:41:46;1.88;;;1.67;;
24153;SDS011;12312;53.362;-1.518;2024-02-04T15:44:30;3.65;;;1.65;;
24153;SDS011;12312;53.362;-1.518;2024-02-04T15:47:16;3.47;;;1.48;;
24153;SDS011;12312;53.362;-1.518;2024-02-04T15:50:01;4.77;;;1.50;;
24153;SDS011;12312;53.362;-1.518;2024-02-04T15:55:32;7.00;;;1.40;;
24153;SDS011;12312;53.362;-1.518;2024-02-04T15:58:17;3.42;;;1.25;;
24153;SDS011;12312;53.362;-1.518;2024-02-04T16:01:02;4.57;;;1.30;;
24153;SDS011;12312;53.362;-1.518;2024-02-04T16:03:53;5.97;;;1.55;;
24153;SDS011;12312;53.362;-1.518;2024-02-04T16:06:38;5.10;;;2.17;;
24153;SDS011;12312;53.362;-1.518;2024-02-04T16:09:22;5.50;;;1.08;;
24153;SDS011;12312;53.362;-1.518;2024-02-04T16:12:08;3.15;;;1.40;;
24153;SDS011;12312;53.362;-1.518;2024-02-04T16:14:52;2.45;;;0.90;;
24153;SDS011;12312;53.362;-1.518;2024-02-04T16:17:39;2.05;;;1.23;;
24153;SDS011;12312;53.362;-1.518;2024-02-04T16:20:23;5.22;;;1.40;;
24153;SDS011;12312;53.362;-1.518;2024-02-04T16:23:09;8.38;;;1.52;;
24153;SDS011;12312;53.362;-1.518;2024-02-04T16:25:53;4.40;;;1.60;;
24153;SDS011;12312;53.362;-1.518;2024-02-04T16:28:38;7.88;;;1.92;;
24153;SDS011;12312;53.362;-1.518;2024-02-04T16:31:22;17.80;;;2.45;;
24153;SDS011;12312;53.362;-1.518;2024-02-04T16:34:06;10.20;;;2.13;;
24153;SDS011;12312;53.362;-1.518;2024-02-04T16:36:50;8.80;;;1.70;;
24153;SDS011;12312;53.362;-1.518;2024-02-04T16:39:34;5.45;;;1.45;;
24153;SDS011;12312;53.362;-1.518;2024-02-04T16:42:19;6.67;;;1.23;;
24153;SDS011;12312;53.362;-1.518;2024-02-04T16:45:04;10.52;;;1.98;;